Time;durP1;ratioP1;P1;durP2;ratioP2;P2;SDS_P1;SDS_P2;PMS_P1;PMS_P2;Temp;Humidity;BMP_temperature;BMP_pressure;BME280_temperature;BME280_humidity;BME280_pressure;Samples;Min_cycle;Max_cycle;Signal;HPM_P1;HPM_P2
2024/01/29 00:01:49;;;;;;;8.77;7.13;;;;;;;;;;5055941;28;20021;-55
2024/01/29 00:04:15;;;;;;;10.90;7.75;;;;;;;;;;5056494;28;20029;-56
2024/01/29 00:06:41;;;;;;;10.10;7.40;;;;;;;;;;5056618;28;20029;-57
2024/01/29 00:09:07;;;;;;;8.63;7.07;;;;;;;;;;5056327;28;20103;-56
2024/01/29 00:11:33;;;;;;;7.22;6.15;;;;;;;;;;5056024;28;20032;-57
2024/01/29 00:14:00;;;;;;;8.52;6.63;;;;;;;;;;5055912;28;20025;-56
2024/01/29 00:16:26;;;;;;;8.77;6.88;;;;;;;;;;5054816;28;20025;-56
2024/01/29 00:18:52;;;;;;;8.32;6.88;;;;;;;;;;5056122;28;20106;-58
2024/01/29 00:21:18;;;;;;;9.45;6.70;;;;;;;;;;5055864;28;20451;-55
2024/01/29 00:23:44;;;;;;;6.93;6.07;;;;;;;;;;5055800;28;20052;-56
2024/01/29 00:26:09;;;;;;;8.13;6.38;;;;;;;;;;5055498;28;20079;-54
2024/01/29 00:28:35;;;;;;;10.52;7.20;;;;;;;;;;5056260;28;20466;-53
2024/01/29 00:31:01;;;;;;;9.88;7.20;;;;;;;;;;5055608;28;20118;-55
2024/01/29 00:33:27;;;;;;;10.68;7.22;;;;;;;;;;5056095;28;20029;-57
2024/01/29 00:35:53;;;;;;;9.63;7.70;;;;;;;;;;5055576;28;20352;-56
2024/01/29 00:38:19;;;;;;;10.82;7.43;;;;;;;;;;5055986;28;20451;-53
2024/01/29 00:40:46;;;;;;;15.07;6.97;;;;;;;;;;5055993;28;20025;-52
2024/01/29 00:43:12;;;;;;;8.55;6.25;;;;;;;;;;5055443;28;20044;-51
2024/01/29 00:45:38;;;;;;;10.43;6.95;;;;;;;;;;5055649;28;20435;-54
2024/01/29 00:48:04;;;;;;;8.18;6.20;;;;;;;;;;5055949;28;20028;-56
2024/01/29 00:50:30;;;;;;;8.68;6.93;;;;;;;;;;5055464;28;20454;-55
2024/01/29 00:52:56;;;;;;;7.47;6.68;;;;;;;;;;5055771;28;20366;-56
2024/01/29 00:55:22;;;;;;;8.73;6.70;;;;;;;;;;5055331;28;20132;-55
2024/01/29 00:57:48;;;;;;;8.10;6.07;;;;;;;;;;5055964;28;20366;-54
2024/01/29 01:00:14;;;;;;;10.00;6.70;;;;;;;;;;5055416;28;20348;-54
2024/01/29 01:02:40;;;;;;;7.57;5.90;;;;;;;;;;5055293;28;20021;-54
2024/01/29 01:05:06;;;;;;;9.02;5.85;;;;;;;;;;5055733;28;20035;-52
2024/01/29 01:07:32;;;;;;;6.40;5.13;;;;;;;;;;5055272;28;20192;-53
2024/01/29 01:09:58;;;;;;;6.53;4.97;;;;;;;;;;5054961;28;20029;-53
2024/01/29 01:12:24;;;;;;;6.85;4.68;;;;;;;;;;5055193;28;20371;-54
2024/01/29 01:14:50;;;;;;;7.13;5.20;;;;;;;;;;5054774;28;20053;-50
2024/01/29 01:17:16;;;;;;;7.75;5.07;;;;;;;;;;5055242;28;20060;-52
2024/01/29 01:19:42;;;;;;;6.47;5.05;;;;;;;;;;5055346;28;20469;-53
2024/01/29 01:22:08;;;;;;;7.05;5.78;;;;;;;;;;5054694;28;20385;-53
2024/01/29 01:24:34;;;;;;;8.02;5.82;;;;;;;;;;5054596;28;20021;-55
2024/01/29 01:27:00;;;;;;;7.55;6.10;;;;;;;;;;5054169;28;20095;-50
2024/01/29 01:29:25;;;;;;;8.85;5.20;;;;;;;;;;5055090;28;20076;-52
2024/01/29 01:31:51;;;;;;;8.82;5.85;;;;;;;;;;5054542;28;20067;-54
2024/01/29 01:34:17;;;;;;;9.02;5.90;;;;;;;;;;5054454;28;20021;-56
2024/01/29 01:36:43;;;;;;;6.57;5.07;;;;;;;;;;5054587;28;20024;-55
2024/01/29 01:39:10;;;;;;;9.90;6.18;;;;;;;;;;5054969;28;20036;-54
2024/01/29 01:41:36;;;;;;;7.13;5.20;;;;;;;;;;5055135;28;20032;-56
2024/01/29 01:44:02;;;;;;;8.40;6.10;;;;;;;;;;5054836;28;20029;-55
2024/01/29 01:46:28;;;;;;;9.98;6.55;;;;;;;;;;5055111;28;20434;-55
2024/01/29 01:48:54;;;;;;;7.07;6.03;;;;;;;;;;5055044;28;20079;-56
2024/01/29 01:51:21;;;;;;;7.00;5.68;;;;;;;;;;5054981;28;20028;-56
2024/01/29 01:53:49;;;;;;;7.68;5.40;;;;;;;;;;5054097;28;20112;-54
2024/01/29 01:56:15;;;;;;;6.53;5.40;;;;;;;;;;5054702;28;20095;-56
2024/01/29 01:58:41;;;;;;;7.45;6.07;;;;;;;;;;5054078;28;20033;-55
2024/01/29 02:01:08;;;;;;;8.23;5.63;;;;;;;;;;5054035;28;20364;-56
2024/01/29 02:03:34;;;;;;;9.75;6.40;;;;;;;;;;5053923;28;20025;-55
2024/01/29 02:06:00;;;;;;;6.93;5.47;;;;;;;;;;5053916;28;20025;-56
2024/01/29 02:08:26;;;;;;;6.70;5.85;;;;;;;;;;5054173;28;20467;-56
2024/01/29 02:10:56;;;;;;;8.32;4.97;;;;;;;;;;5053900;28;20118;-54
2024/01/29 02:13:22;;;;;;;8.07;5.90;;;;;;;;;;5053852;28;20027;-54
2024/01/29 02:15:48;;;;;;;7.93;4.90;;;;;;;;;;5054329;28;20021;-56
2024/01/29 02:18:14;;;;;;;6.70;5.13;;;;;;;;;;5054013;28;20064;-54
2024/01/29 02:20:40;;;;;;;7.65;6.13;;;;;;;;;;5053529;28;20044;-54
2024/01/29 02:23:06;;;;;;;7.90;5.85;;;;;;;;;;5053742;28;20025;-54
2024/01/29 02:25:33;;;;;;;9.57;5.93;;;;;;;;;;5053961;28;20043;-52
2024/01/29 02:27:59;;;;;;;8.10;5.20;;;;;;;;;;5054292;28;20368;-50
2024/01/29 02:30:25;;;;;;;6.70;5.15;;;;;;;;;;5053623;28;20029;-52
2024/01/29 02:32:51;;;;;;;6.60;5.38;;;;;;;;;;5053714;28;20029;-52
2024/01/29 02:35:17;;;;;;;4.88;4.28;;;;;;;;;;5053845;28;20033;-51
2024/01/29 02:37:43;;;;;;;7.20;5.50;;;;;;;;;;5053825;28;20497;-51
2024/01/29 02:40:09;;;;;;;7.10;4.13;;;;;;;;;;5055425;28;20410;-52
2024/01/29 02:42:35;;;;;;;6.90;4.82;;;;;;;;;;5057800;28;20021;-50
2024/01/29 02:45:01;;;;;;;4.93;4.05;;;;;;;;;;5057685;28;20040;-49
2024/01/29 02:47:27;;;;;;;4.28;3.80;;;;;;;;;;5058212;28;20035;-49
2024/01/29 02:49:52;;;;;;;7.07;4.30;;;;;;;;;;5058358;28;20055;-50
2024/01/29 02:52:19;;;;;;;6.88;4.18;;;;;;;;;;5058082;28;20025;-52
2024/01/29 02:54:45;;;;;;;4.82;2.78;;;;;;;;;;5057673;28;20049;-56
2024/01/29 02:57:11;;;;;;;5.82;3.20;;;;;;;;;;5057377;28;20033;-56
2024/01/29 02:59:37;;;;;;;3.75;3.15;;;;;;;;;;5058016;28;20032;-56
2024/01/29 03:02:03;;;;;;;4.20;3.28;;;;;;;;;;5057342;28;20029;-55
2024/01/29 03:04:29;;;;;;;4.68;3.30;;;;;;;;;;5057290;28;20115;-54
2024/01/29 03:06:55;;;;;;;5.90;3.15;;;;;;;;;;5057680;28;20064;-53
2024/01/29 03:09:21;;;;;;;4.20;2.38;;;;;;;;;;5057857;28;20025;-55
2024/01/29 03:11:47;;;;;;;5.47;2.53;;;;;;;;;;5057204;28;20516;-55
2024/01/29 03:14:13;;;;;;;2.65;2.05;;;;;;;;;;5057024;28;20106;-55
2024/01/29 03:16:39;;;;;;;3.38;2.47;;;;;;;;;;5057898;28;20029;-53
2024/01/29 03:19:05;;;;;;;3.38;2.53;;;;;;;;;;5057854;28;20025;-55
2024/01/29 03:21:31;;;;;;;4.82;2.92;;;;;;;;;;5057009;28;20027;-50
2024/01/29 03:23:57;;;;;;;4.53;3.22;;;;;;;;;;5056651;28;20104;-52
2024/01/29 03:26:23;;;;;;;4.13;2.67;;;;;;;;;;5057170;28;20171;-53
2024/01/29 03:28:49;;;;;;;4.88;3.05;;;;;;;;;;5057442;28;20025;-55
2024/01/29 03:31:15;;;;;;;3.92;2.88;;;;;;;;;;5057334;28;20501;-53
2024/01/29 03:33:41;;;;;;;4.65;2.78;;;;;;;;;;5056763;28;20031;-53
2024/01/29 03:36:07;;;;;;;3.35;2.15;;;;;;;;;;5057505;28;20490;-56
2024/01/29 03:38:33;;;;;;;3.78;2.65;;;;;;;;;;5056927;28;20111;-55
2024/01/29 03:41:00;;;;;;;3.97;2.67;;;;;;;;;;5056673;28;20025;-55
2024/01/29 03:43:26;;;;;;;4.05;2.95;;;;;;;;;;5057126;28;20383;-55
2024/01/29 03:45:53;;;;;;;6.15;3.28;;;;;;;;;;5057127;28;20455;-55
2024/01/29 03:48:19;;;;;;;3.80;2.58;;;;;;;;;;5056864;28;20472;-54
2024/01/29 03:50:45;;;;;;;5.18;3.20;;;;;;;;;;5056867;28;20025;-55
2024/01/29 03:53:11;;;;;;;4.35;2.97;;;;;;;;;;5057197;28;20385;-56
2024/01/29 03:55:37;;;;;;;3.67;2.65;;;;;;;;;;5056414;28;20049;-55
2024/01/29 03:58:03;;;;;;;4.45;3.08;;;;;;;;;;5056909;28;20063;-55
2024/01/29 04:00:30;;;;;;;4.25;2.55;;;;;;;;;;5056216;28;20029;-53
2024/01/29 04:02:56;;;;;;;9.68;2.85;;;;;;;;;;5057005;28;20370;-55
2024/01/29 04:05:22;;;;;;;3.70;2.63;;;;;;;;;;5056253;28;20020;-56
2024/01/29 04:07:48;;;;;;;6.57;3.35;;;;;;;;;;5056793;28;20435;-56
2024/01/29 04:10:15;;;;;;;6.80;3.63;;;;;;;;;;5056894;28;20082;-56
2024/01/29 04:12:41;;;;;;;3.95;2.88;;;;;;;;;;5056049;28;20033;-54
2024/01/29 04:15:07;;;;;;;7.13;3.35;;;;;;;;;;5055892;28;20036;-54
2024/01/29 04:17:33;;;;;;;3.80;2.40;;;;;;;;;;5055880;28;20044;-54
2024/01/29 04:19:59;;;;;;;4.82;3.17;;;;;;;;;;5055916;28;20025;-53
2024/01/29 04:22:25;;;;;;;4.55;3.28;;;;;;;;;;5056684;28;20032;-56
2024/01/29 04:24:51;;;;;;;7.05;3.55;;;;;;;;;;5056046;28;20031;-54
2024/01/29 04:27:17;;;;;;;4.03;3.08;;;;;;;;;;5055771;28;20116;-55
2024/01/29 04:29:43;;;;;;;3.80;3.13;;;;;;;;;;5055947;28;20025;-54
2024/01/29 04:32:09;;;;;;;3.65;2.88;;;;;;;;;;5056207;28;20048;-54
2024/01/29 04:34:35;;;;;;;5.20;3.70;;;;;;;;;;5055546;28;20021;-55
2024/01/29 04:37:01;;;;;;;5.60;4.57;;;;;;;;;;5056014;28;20025;-56
2024/01/29 04:39:27;;;;;;;6.10;4.32;;;;;;;;;;5055832;28;20410;-55
2024/01/29 04:41:53;;;;;;;8.27;4.47;;;;;;;;;;5055559;28;20120;-55
2024/01/29 04:44:19;;;;;;;5.82;4.57;;;;;;;;;;5056252;28;20024;-54
2024/01/29 04:46:45;;;;;;;6.10;4.60;;;;;;;;;;5055449;28;20096;-56
2024/01/29 04:49:11;;;;;;;7.55;5.43;;;;;;;;;;5056193;28;20048;-55
2024/01/29 04:51:37;;;;;;;7.55;5.00;;;;;;;;;;5055314;28;20021;-54
2024/01/29 04:54:04;;;;;;;6.43;5.05;;;;;;;;;;5054964;28;20025;-54
2024/01/29 04:56:29;;;;;;;8.38;5.70;;;;;;;;;;5055831;28;20412;-54
2024/01/29 04:58:55;;;;;;;7.18;5.18;;;;;;;;;;5055510;28;20171;-54
2024/01/29 05:01:21;;;;;;;7.22;5.72;;;;;;;;;;5055148;28;20083;-55
2024/01/29 05:03:47;;;;;;;8.05;5.00;;;;;;;;;;5054595;28;20028;-56
2024/01/29 05:06:14;;;;;;;6.30;5.38;;;;;;;;;;5055608;28;20033;-56
2024/01/29 05:08:39;;;;;;;7.43;5.82;;;;;;;;;;5055862;28;20025;-56
2024/01/29 05:11:05;;;;;;;8.73;5.40;;;;;;;;;;5054982;28;20086;-56
2024/01/29 05:13:31;;;;;;;7.72;4.88;;;;;;;;;;5055350;28;20025;-56
2024/01/29 05:15:57;;;;;;;6.85;4.95;;;;;;;;;;5055481;28;20508;-53
2024/01/29 05:18:23;;;;;;;9.47;4.43;;;;;;;;;;5054825;28;20076;-55
2024/01/29 05:20:49;;;;;;;6.43;4.50;;;;;;;;;;5055216;28;20021;-55
2024/01/29 05:23:15;;;;;;;7.35;4.95;;;;;;;;;;5054639;28;20117;-54
2024/01/29 05:25:41;;;;;;;7.20;5.13;;;;;;;;;;5054252;28;20029;-54
2024/01/29 05:28:07;;;;;;;6.78;4.78;;;;;;;;;;5054593;28;20143;-57
2024/01/29 05:30:33;;;;;;;11.10;5.90;;;;;;;;;;5054460;28;20025;-57
2024/01/29 05:32:59;;;;;;;7.90;5.75;;;;;;;;;;5054427;28;20519;-56
2024/01/29 05:35:25;;;;;;;11.95;6.57;;;;;;;;;;5054388;28;20115;-53
2024/01/29 05:37:51;;;;;;;9.40;5.82;;;;;;;;;;5054797;28;20025;-56
2024/01/29 05:40:17;;;;;;;6.90;5.40;;;;;;;;;;5055130;28;20032;-55
2024/01/29 05:43:19;;;;;;;7.05;6.07;;;;;;;;;;5054336;28;20064;-57
2024/01/29 05:45:46;;;;;;;10.70;6.68;;;;;;;;;;5054279;28;20017;-57
2024/01/29 05:48:12;;;;;;;9.10;7.05;;;;;;;;;;5054202;28;20370;-55
2024/01/29 05:50:38;;;;;;;8.40;6.72;;;;;;;;;;5054704;28;20110;-52
2024/01/29 05:53:04;;;;;;;8.77;6.60;;;;;;;;;;5053835;28;20025;-56
2024/01/29 05:55:30;;;;;;;8.60;7.03;;;;;;;;;;5053571;28;20137;-55
2024/01/29 05:57:56;;;;;;;6.90;5.67;;;;;;;;;;5054501;28;20043;-56
2024/01/29 06:00:22;;;;;;;10.80;6.47;;;;;;;;;;5053674;28;20484;-57
2024/01/29 06:02:52;;;;;;;8.20;5.90;;;;;;;;;;5053938;28;20033;-57
2024/01/29 06:05:18;;;;;;;8.80;6.03;;;;;;;;;;5053521;28;20021;-56
2024/01/29 06:07:44;;;;;;;6.53;5.70;;;;;;;;;;5054341;28;20075;-57
2024/01/29 06:10:10;;;;;;;10.60;6.57;;;;;;;;;;5053902;28;20045;-55
2024/01/29 06:12:36;;;;;;;7.00;6.23;;;;;;;;;;5054331;28;20025;-55
2024/01/29 06:15:02;;;;;;;8.20;6.55;;;;;;;;;;5052920;28;20032;-53
2024/01/29 06:17:31;;;;;;;8.60;6.63;;;;;;;;;;5052705;28;20500;-55
2024/01/29 06:19:57;;;;;;;10.53;6.73;;;;;;;;;;5053702;28;20115;-53
2024/01/29 06:22:23;;;;;;;10.95;6.93;;;;;;;;;;5053863;28;20059;-53
2024/01/29 06:24:49;;;;;;;10.17;6.60;;;;;;;;;;5053775;28;20467;-56
2024/01/29 06:27:15;;;;;;;8.83;6.53;;;;;;;;;;5054186;28;20071;-55
2024/01/29 06:29:41;;;;;;;9.83;6.67;;;;;;;;;;5054082;28;20025;-55
2024/01/29 06:32:07;;;;;;;7.80;5.97;;;;;;;;;;5053626;28;20021;-54
2024/01/29 06:34:34;;;;;;;7.32;5.35;;;;;;;;;;5053313;28;20021;-56
2024/01/29 06:37:00;;;;;;;8.87;6.63;;;;;;;;;;5053544;28;20033;-56
2024/01/29 06:39:26;;;;;;;7.40;6.17;;;;;;;;;;5053360;28;20025;-51
2024/01/29 06:41:52;;;;;;;9.48;6.85;;;;;;;;;;5054140;28;20029;-51
2024/01/29 06:44:18;;;;;;;12.60;7.03;;;;;;;;;;5053578;28;20166;-56
2024/01/29 06:46:44;;;;;;;9.27;7.33;;;;;;;;;;5053694;28;20107;-55
2024/01/29 06:49:24;;;;;;;11.33;7.37;;;;;;;;;;5054068;28;20025;-52
2024/01/29 06:51:50;;;;;;;11.75;7.28;;;;;;;;;;5053873;28;20029;-55
2024/01/29 06:54:16;;;;;;;14.23;7.90;;;;;;;;;;5053444;28;20410;-54
2024/01/29 06:56:42;;;;;;;10.80;6.95;;;;;;;;;;5054165;28;20033;-54
2024/01/29 06:59:08;;;;;;;9.40;6.60;;;;;;;;;;5053157;28;20455;-55
2024/01/29 07:01:34;;;;;;;7.87;6.50;;;;;;;;;;5053136;28;20024;-54
2024/01/29 07:04:00;;;;;;;7.37;6.40;;;;;;;;;;5053619;28;20435;-55
2024/01/29 07:06:26;;;;;;;7.73;6.20;;;;;;;;;;5053734;28;20017;-54
2024/01/29 07:08:52;;;;;;;10.80;7.50;;;;;;;;;;5053822;28;20041;-54
2024/01/29 07:11:18;;;;;;;12.27;6.73;;;;;;;;;;5053443;28;20459;-54
2024/01/29 07:13:44;;;;;;;10.05;7.00;;;;;;;;;;5053437;28;20367;-50
2024/01/29 07:16:10;;;;;;;14.67;7.47;;;;;;;;;;5053263;28;20055;-53
2024/01/29 07:18:36;;;;;;;11.13;6.97;;;;;;;;;;5053179;28;20501;-52
2024/01/29 07:21:02;;;;;;;11.77;7.23;;;;;;;;;;5053410;28;20466;-51
2024/01/29 07:23:28;;;;;;;13.13;7.57;;;;;;;;;;5052742;28;20037;-54
2024/01/29 07:25:55;;;;;;;9.48;7.65;;;;;;;;;;5054364;28;20373;-52
2024/01/29 07:28:21;;;;;;;7.93;6.68;;;;;;;;;;5057617;28;20140;-51
2024/01/29 07:30:47;;;;;;;12.02;7.68;;;;;;;;;;5056799;28;20112;-50
2024/01/29 07:33:13;;;;;;;9.83;6.90;;;;;;;;;;5056495;28;20463;-49
2024/01/29 07:35:39;;;;;;;8.15;6.95;;;;;;;;;;5057239;28;20025;-49
2024/01/29 07:38:05;;;;;;;10.07;8.97;;;;;;;;;;5057450;28;20099;-53
2024/01/29 07:40:35;;;;;;;14.20;8.82;;;;;;;;;;5056621;28;20025;-52
2024/01/29 07:43:00;;;;;;;9.97;7.10;;;;;;;;;;5056128;28;20494;-52
2024/01/29 07:45:26;;;;;;;9.68;7.05;;;;;;;;;;5056875;28;20025;-52
2024/01/29 07:47:53;;;;;;;8.00;6.70;;;;;;;;;;5057023;28;20029;-51
2024/01/29 07:50:19;;;;;;;9.20;7.00;;;;;;;;;;5056205;28;20417;-51
2024/01/29 07:52:45;;;;;;;9.45;6.68;;;;;;;;;;5057163;28;20025;-50
2024/01/29 07:55:11;;;;;;;10.07;6.70;;;;;;;;;;5056599;28;20044;-52
2024/01/29 07:57:37;;;;;;;8.47;6.70;;;;;;;;;;5057140;28;20447;-51
2024/01/29 08:00:04;;;;;;;6.65;5.70;;;;;;;;;;5056307;28;20458;-52
2024/01/29 08:02:29;;;;;;;9.32;6.75;;;;;;;;;;5056192;28;20025;-50
2024/01/29 08:04:55;;;;;;;8.82;7.15;;;;;;;;;;5056118;28;20087;-53
2024/01/29 08:07:21;;;;;;;8.50;6.75;;;;;;;;;;5055995;28;20375;-54
2024/01/29 08:09:48;;;;;;;9.40;7.57;;;;;;;;;;5056780;28;20029;-53
2024/01/29 08:12:14;;;;;;;8.97;6.40;;;;;;;;;;5056080;28;20111;-52
2024/01/29 08:14:40;;;;;;;9.93;6.57;;;;;;;;;;5056503;28;20375;-54
2024/01/29 08:17:06;;;;;;;10.82;6.65;;;;;;;;;;5056647;28;20024;-54
2024/01/29 08:19:32;;;;;;;8.05;5.60;;;;;;;;;;5056088;28;20490;-54
2024/01/29 08:21:58;;;;;;;6.82;5.85;;;;;;;;;;5056469;28;20466;-54
2024/01/29 08:24:24;;;;;;;10.32;6.60;;;;;;;;;;5055861;28;20029;-54
2024/01/29 08:26:50;;;;;;;14.60;7.43;;;;;;;;;;5055941;28;20029;-56
2024/01/29 08:29:15;;;;;;;6.60;5.57;;;;;;;;;;5056424;28;20107;-55
2024/01/29 08:31:41;;;;;;;8.85;6.07;;;;;;;;;;5055667;28;20228;-56
2024/01/29 08:34:07;;;;;;;9.13;6.18;;;;;;;;;;5056125;28;20025;-54
2024/01/29 08:36:33;;;;;;;6.95;5.50;;;;;;;;;;5055345;28;20036;-51
2024/01/29 08:38:59;;;;;;;7.47;6.18;;;;;;;;;;5055268;28;20078;-52
2024/01/29 08:41:25;;;;;;;8.48;5.88;;;;;;;;;;5055581;28;20445;-55
2024/01/29 08:43:51;;;;;;;8.70;6.80;;;;;;;;;;5056077;28;20060;-54
2024/01/29 08:46:17;;;;;;;7.75;6.82;;;;;;;;;;5055443;28;20070;-53
2024/01/29 08:48:43;;;;;;;11.88;5.95;;;;;;;;;;5055437;28;20025;-56
2024/01/29 08:51:09;;;;;;;9.27;7.25;;;;;;;;;;5055638;28;20025;-54
2024/01/29 08:53:36;;;;;;;8.80;6.32;;;;;;;;;;5055189;28;20112;-54
2024/01/29 08:56:05;;;;;;;9.30;6.63;;;;;;;;;;5055188;28;20049;-52
2024/01/29 08:58:32;;;;;;;8.65;6.22;;;;;;;;;;5055491;28;20112;-55
2024/01/29 09:00:58;;;;;;;8.13;6.38;;;;;;;;;;5054571;28;20033;-52
2024/01/29 09:03:27;;;;;;;8.27;6.13;;;;;;;;;;5055352;28;20068;-54
2024/01/29 09:05:53;;;;;;;8.82;5.88;;;;;;;;;;5055099;28;20064;-54
2024/01/29 09:08:19;;;;;;;6.35;5.40;;;;;;;;;;5055395;28;20097;-56
2024/01/29 09:10:45;;;;;;;8.35;5.40;;;;;;;;;;5055038;28;20379;-53
2024/01/29 09:13:12;;;;;;;6.65;5.47;;;;;;;;;;5055744;28;20124;-54
2024/01/29 09:15:38;;;;;;;8.82;6.38;;;;;;;;;;5055392;28;20025;-53
2024/01/29 09:18:04;;;;;;;12.05;7.00;;;;;;;;;;5055063;28;20039;-54
2024/01/29 09:20:30;;;;;;;8.35;6.65;;;;;;;;;;5055546;28;20021;-56
2024/01/29 09:22:56;;;;;;;7.68;5.38;;;;;;;;;;5054784;28;20032;-54
2024/01/29 09:25:22;;;;;;;7.13;5.32;;;;;;;;;;5055165;28;20068;-51
2024/01/29 09:27:48;;;;;;;8.80;5.65;;;;;;;;;;5055321;28;20025;-53
2024/01/29 09:30:14;;;;;;;7.55;5.00;;;;;;;;;;5054621;28;20021;-53
2024/01/29 09:32:40;;;;;;;7.18;5.45;;;;;;;;;;5054953;28;20451;-53
2024/01/29 09:35:08;;;;;;;6.15;4.97;;;;;;;;;;5054545;28;20036;-56
2024/01/29 09:37:34;;;;;;;7.18;4.88;;;;;;;;;;5054631;28;20131;-52
2024/01/29 09:40:00;;;;;;;5.53;4.20;;;;;;;;;;5054470;28;20033;-53
2024/01/29 09:42:29;;;;;;;7.30;4.55;;;;;;;;;;5054959;28;20025;-56
2024/01/29 09:44:55;;;;;;;12.73;5.68;;;;;;;;;;5054337;28;20029;-55
2024/01/29 09:47:21;;;;;;;7.95;5.80;;;;;;;;;;5054541;28;20057;-54
2024/01/29 09:49:47;;;;;;;6.60;5.78;;;;;;;;;;5054595;28;20378;-54
2024/01/29 09:52:14;;;;;;;7.38;6.07;;;;;;;;;;5053820;28;20447;-53
2024/01/29 09:54:44;;;;;;;8.93;4.57;;;;;;;;;;5054295;28;20103;-54
2024/01/29 09:57:11;;;;;;;;;;;;;;;;;;5054740;28;20378;-53
2024/01/29 09:59:37;;;;;;;6.22;4.85;;;;;;;;;;5054375;28;19908;-55
2024/01/29 10:02:03;;;;;;;7.03;5.25;;;;;;;;;;5053983;28;20340;-56
2024/01/29 10:04:29;;;;;;;6.95;5.32;;;;;;;;;;5053693;28;20074;-55
2024/01/29 10:06:55;;;;;;;8.75;5.00;;;;;;;;;;5054553;28;20021;-56
2024/01/29 10:09:21;;;;;;;7.45;5.60;;;;;;;;;;5054601;28;20143;-55
2024/01/29 10:11:49;;;;;;;9.90;6.88;;;;;;;;;;5054438;28;20025;-56
2024/01/29 10:14:16;;;;;;;9.93;6.75;;;;;;;;;;5053732;28;20029;-55
2024/01/29 10:16:42;;;;;;;8.23;5.80;;;;;;;;;;5054038;28;20385;-56
2024/01/29 10:19:09;;;;;;;6.97;5.18;;;;;;;;;;5054142;28;20033;-53
2024/01/29 10:21:44;;;;;;;8.10;5.80;;;;;;;;;;5053781;28;20025;-53
2024/01/29 10:24:13;;;;;;;7.03;5.03;;;;;;;;;;5054654;28;20067;-54
2024/01/29 10:26:39;;;;;;;5.75;4.60;;;;;;;;;;5053965;28;20370;-52
2024/01/29 10:29:05;;;;;;;5.65;4.68;;;;;;;;;;5054279;28;20029;-56
2024/01/29 10:31:32;;;;;;;6.65;4.85;;;;;;;;;;5054044;28;20028;-56
2024/01/29 10:33:58;;;;;;;5.43;4.75;;;;;;;;;;5053266;28;20030;-55
2024/01/29 10:36:24;;;;;;;7.75;5.57;;;;;;;;;;5053217;28;20029;-56
2024/01/29 10:38:51;;;;;;;9.05;6.28;;;;;;;;;;5053825;28;20040;-56
2024/01/29 10:41:20;;;;;;;6.43;4.97;;;;;;;;;;5053614;28;20033;-57
2024/01/29 10:43:47;;;;;;;8.02;5.82;;;;;;;;;;5053480;28;20029;-53
2024/01/29 10:46:17;;;;;;;6.45;5.68;;;;;;;;;;5053602;28;20025;-55
2024/01/29 10:48:43;;;;;;;7.78;5.05;;;;;;;;;;5053602;28;20040;-56
2024/01/29 10:51:11;;;;;;;7.35;5.30;;;;;;;;;;5053233;28;20107;-56
2024/01/29 10:53:38;;;;;;;7.15;5.55;;;;;;;;;;5053435;28;20028;-53
2024/01/29 10:56:05;;;;;;;5.30;4.65;;;;;;;;;;5053608;28;20079;-52
2024/01/29 10:58:31;;;;;;;6.35;4.57;;;;;;;;;;5054008;28;20087;-56
2024/01/29 11:00:58;;;;;;;5.07;4.50;;;;;;;;;;5054648;28;20467;-56
2024/01/29 11:03:26;;;;;;;6.18;4.60;;;;;;;;;;5057671;28;20083;-55
2024/01/29 11:05:56;;;;;;;9.60;5.07;;;;;;;;;;5057962;28;20033;-55
2024/01/29 11:08:24;;;;;;;5.27;4.77;;;;;;;;;;5057843;28;20455;-56
2024/01/29 11:10:50;;;;;;;11.88;5.45;;;;;;;;;;5057217;28;20036;-55
2024/01/29 11:13:18;;;;;;;8.70;6.90;;;;;;;;;;5057057;28;20494;-56
2024/01/29 11:15:44;;;;;;;7.93;6.75;;;;;;;;;;5057058;28;20082;-52
2024/01/29 11:18:11;;;;;;;7.80;5.43;;;;;;;;;;5057390;28;20056;-57
2024/01/29 11:20:39;;;;;;;8.60;6.10;;;;;;;;;;5056976;28;20348;-56
2024/01/29 11:23:05;;;;;;;8.55;6.00;;;;;;;;;;5057074;28;20466;-55
2024/01/29 11:25:32;;;;;;;9.50;6.35;;;;;;;;;;5056934;28;20040;-56
2024/01/29 11:27:58;;;;;;;6.45;5.53;;;;;;;;;;5057732;28;20375;-56
2024/01/29 11:30:25;;;;;;;8.93;6.28;;;;;;;;;;5056781;28;20032;-57
2024/01/29 11:32:52;;;;;;;6.00;5.05;;;;;;;;;;5056780;28;20028;-55
2024/01/29 11:35:19;;;;;;;7.22;5.25;;;;;;;;;;5057299;28;20032;-56
2024/01/29 11:37:45;;;;;;;7.13;5.45;;;;;;;;;;5056528;28;20024;-56
2024/01/29 11:40:31;;;;;;;5.45;4.63;;;;;;;;;;5056668;28;20033;-56
2024/01/29 11:42:57;;;;;;;5.63;4.93;;;;;;;;;;5056552;28;20022;-57
2024/01/29 11:45:24;;;;;;;6.60;6.00;;;;;;;;;;5056592;28;20028;-54
2024/01/29 11:47:49;;;;;;;8.20;5.32;;;;;;;;;;5057094;28;20199;-56
2024/01/29 11:50:15;;;;;;;8.82;5.35;;;;;;;;;;5056495;28;20427;-55
2024/01/29 11:52:41;;;;;;;6.10;4.57;;;;;;;;;;5056361;28;20112;-57
2024/01/29 11:55:07;;;;;;;5.90;5.07;;;;;;;;;;5056370;28;20076;-55
2024/01/29 11:57:33;;;;;;;7.00;5.05;;;;;;;;;;5056191;28;20079;-54
2024/01/29 12:00:03;;;;;;;7.03;4.88;;;;;;;;;;5057154;28;20458;-52
2024/01/29 12:02:30;;;;;;;8.90;5.57;;;;;;;;;;5056751;28;20119;-55
2024/01/29 12:04:56;;;;;;;7.93;5.40;;;;;;;;;;5056200;28;20017;-55
2024/01/29 12:07:22;;;;;;;6.00;5.22;;;;;;;;;;5056257;28;20100;-52
2024/01/29 12:09:48;;;;;;;7.60;5.00;;;;;;;;;;5056066;28;20059;-53
2024/01/29 12:12:15;;;;;;;6.05;4.85;;;;;;;;;;5054692;28;20040;-57
2024/01/29 12:14:41;;;;;;;5.15;4.38;;;;;;;;;;5056763;28;20024;-57
2024/01/29 12:17:09;;;;;;;6.65;4.85;;;;;;;;;;5056469;28;20071;-56
2024/01/29 12:19:35;;;;;;;5.38;3.70;;;;;;;;;;5055986;28;20029;-53
2024/01/29 12:22:01;;;;;;;11.80;4.90;;;;;;;;;;5056356;28;20025;-55
2024/01/29 12:24:27;;;;;;;4.28;3.45;;;;;;;;;;5055762;28;20021;-53
2024/01/29 12:26:53;;;;;;;6.47;3.72;;;;;;;;;;5056405;28;20366;-53
2024/01/29 12:29:20;;;;;;;6.38;3.30;;;;;;;;;;5056687;28;20029;-54
2024/01/29 12:31:45;;;;;;;4.30;3.55;;;;;;;;;;5055816;28;20025;-55
2024/01/29 12:34:21;;;;;;;5.80;3.53;;;;;;;;;;5055238;28;20037;-57
2024/01/29 12:36:54;;;;;;;4.32;3.47;;;;;;;;;;5055485;28;20021;-56
2024/01/29 12:39:20;;;;;;;4.47;3.50;;;;;;;;;;5056375;28;20422;-56
2024/01/29 12:41:46;;;;;;;3.78;3.38;;;;;;;;;;5055471;28;20037;-55
2024/01/29 12:44:12;;;;;;;4.75;3.63;;;;;;;;;;5055814;28;20031;-55
2024/01/29 12:46:38;;;;;;;3.83;3.15;;;;;;;;;;5055103;28;20475;-57
2024/01/29 12:49:07;;;;;;;4.28;2.95;;;;;;;;;;5056186;28;20029;-56
2024/01/29 12:51:33;;;;;;;4.38;3.10;;;;;;;;;;5055282;28;20021;-57
2024/01/29 12:53:59;;;;;;;5.70;3.67;;;;;;;;;;5054955;28;20067;-55
2024/01/29 12:56:27;;;;;;;4.47;3.03;;;;;;;;;;5055611;28;20055;-56
2024/01/29 12:58:53;;;;;;;4.68;3.40;;;;;;;;;;5055149;28;20033;-56
2024/01/29 13:01:19;;;;;;;5.15;3.25;;;;;;;;;;5055126;28;20135;-55
2024/01/29 13:03:45;;;;;;;3.47;3.00;;;;;;;;;;5054996;28;20021;-57
2024/01/29 13:06:11;;;;;;;4.90;3.35;;;;;;;;;;5055007;28;20039;-54
2024/01/29 13:08:37;;;;;;;4.43;3.55;;;;;;;;;;5055498;28;20463;-54
2024/01/29 13:11:03;;;;;;;5.03;3.97;;;;;;;;;;5054928;28;20021;-55
2024/01/29 13:13:29;;;;;;;5.55;3.70;;;;;;;;;;5054571;28;20032;-53
2024/01/29 13:15:55;;;;;;;4.57;3.92;;;;;;;;;;5055061;28;20088;-57
2024/01/29 13:18:21;;;;;;;4.88;3.75;;;;;;;;;;5054668;28;20079;-55
2024/01/29 13:20:47;;;;;;;4.30;3.40;;;;;;;;;;5055185;28;20032;-57
2024/01/29 13:23:13;;;;;;;4.25;3.85;;;;;;;;;;5054439;28;20104;-54
2024/01/29 13:25:39;;;;;;;5.40;4.63;;;;;;;;;;5054426;28;20029;-56
2024/01/29 13:28:07;;;;;;;4.40;3.13;;;;;;;;;;5054791;28;20063;-57
2024/01/29 13:30:33;;;;;;;4.82;3.53;;;;;;;;;;5054809;28;20431;-55
2024/01/29 13:32:59;;;;;;;5.38;3.60;;;;;;;;;;5054373;28;20029;-57
2024/01/29 13:35:25;;;;;;;3.97;2.97;;;;;;;;;;5055490;28;20025;-57
2024/01/29 13:37:51;;;;;;;4.18;2.90;;;;;;;;;;5054589;28;20036;-55
2024/01/29 13:40:20;;;;;;;5.05;3.53;;;;;;;;;;5054629;28;20060;-57
2024/01/29 13:42:48;;;;;;;3.95;3.28;;;;;;;;;;5054316;28;20028;-54
2024/01/29 13:45:14;;;;;;;3.22;2.88;;;;;;;;;;5054888;28;20036;-57
2024/01/29 13:47:40;;;;;;;4.85;3.50;;;;;;;;;;5055269;28;20443;-57
2024/01/29 13:50:06;;;;;;;3.47;2.97;;;;;;;;;;5054632;28;20109;-57
2024/01/29 13:52:33;;;;;;;4.13;3.20;;;;;;;;;;5053966;28;20486;-57
2024/01/29 13:54:59;;;;;;;4.55;3.35;;;;;;;;;;5054401;28;20056;-55
2024/01/29 13:57:24;;;;;;;5.00;3.67;;;;;;;;;;5054678;28;20029;-55
2024/01/29 13:59:51;;;;;;;4.55;3.03;;;;;;;;;;5054208;28;20029;-57
2024/01/29 14:02:17;;;;;;;3.65;3.30;;;;;;;;;;5053806;28;20025;-57
2024/01/29 14:04:43;;;;;;;4.95;3.65;;;;;;;;;;5054296;28;20079;-54
2024/01/29 14:07:10;;;;;;;5.55;3.33;;;;;;;;;;5053740;28;20459;-54
2024/01/29 14:09:39;;;;;;;5.13;3.08;;;;;;;;;;5054589;28;20029;-57
2024/01/29 14:12:05;;;;;;;5.65;3.15;;;;;;;;;;5053714;28;20033;-56
2024/01/29 14:14:31;;;;;;;6.78;3.30;;;;;;;;;;5053266;28;20246;-57
2024/01/29 14:16:57;;;;;;;5.97;3.97;;;;;;;;;;5053344;28;20112;-55
2024/01/29 14:19:26;;;;;;;3.28;2.30;;;;;;;;;;5053403;28;20040;-56
2024/01/29 14:21:52;;;;;;;6.50;3.40;;;;;;;;;;5053508;28;20040;-58
2024/01/29 14:24:18;;;;;;;4.10;2.58;;;;;;;;;;5054468;28;20431;-57
2024/01/29 14:26:44;;;;;;;8.20;3.67;;;;;;;;;;5053311;28;20386;-56
2024/01/29 14:29:11;;;;;;;6.00;4.00;;;;;;;;;;5053669;28;20467;-57
2024/01/29 14:31:40;;;;;;;6.85;4.68;;;;;;;;;;5053342;28;20475;-56
2024/01/29 14:34:06;;;;;;;5.20;4.20;;;;;;;;;;5053761;28;20032;-57
2024/01/29 14:36:32;;;;;;;5.97;4.95;;;;;;;;;;5053564;28;20530;-57